METAR Data
IDs: Format: Raw Decoded Include TAF

Data at: 2057 UTC 02 Aug 2021

UMMS 022030Z 23004MPS 9999 SCT042CB 16/15 Q1008 R31R/290060 R31L/////// NOSIG